sensor_id;sensor_type;location;lat;lon;timestamp;P1;durP1;ratioP1;P2;durP2;ratioP2
42282;SDS011;28237;47.954;21.730;2022-08-21T00:01:47;5.83;;;2.33;;
42282;SDS011;28237;47.954;21.730;2022-08-21T00:04:12;8.90;;;3.05;;
42282;SDS011;28237;47.954;21.730;2022-08-21T00:06:38;7.53;;;1.73;;
42282;SDS011;28237;47.954;21.730;2022-08-21T00:09:04;9.27;;;2.97;;
42282;SDS011;28237;47.954;21.730;2022-08-21T00:11:31;6.00;;;2.38;;
42282;SDS011;28237;47.954;21.730;2022-08-21T00:13:56;5.63;;;2.38;;
42282;SDS011;28237;47.954;21.730;2022-08-21T00:16:21;10.30;;;1.97;;
42282;SDS011;28237;47.954;21.730;2022-08-21T00:18:47;5.32;;;2.00;;
42282;SDS011;28237;47.954;21.730;2022-08-21T00:21:13;5.95;;;2.72;;
42282;SDS011;28237;47.954;21.730;2022-08-21T00:23:39;8.05;;;3.33;;
42282;SDS011;28237;47.954;21.730;2022-08-21T00:26:04;4.03;;;1.88;;
42282;SDS011;28237;47.954;21.730;2022-08-21T00:28:30;7.65;;;2.25;;
42282;SDS011;28237;47.954;21.730;2022-08-21T00:30:55;6.60;;;2.70;;
42282;SDS011;28237;47.954;21.730;2022-08-21T00:33:21;5.40;;;2.28;;
42282;SDS011;28237;47.954;21.730;2022-08-21T00:35:46;5.03;;;2.28;;
42282;SDS011;28237;47.954;21.730;2022-08-21T00:38:12;6.73;;;2.63;;
42282;SDS011;28237;47.954;21.730;2022-08-21T00:40:40;4.55;;;2.70;;
42282;SDS011;28237;47.954;21.730;2022-08-21T00:43:08;4.75;;;3.00;;
42282;SDS011;28237;47.954;21.730;2022-08-21T00:45:33;6.50;;;2.92;;
42282;SDS011;28237;47.954;21.730;2022-08-21T00:47:59;5.68;;;2.20;;
42282;SDS011;28237;47.954;21.730;2022-08-21T00:50:29;6.15;;;2.15;;
42282;SDS011;28237;47.954;21.730;2022-08-21T00:52:56;7.45;;;2.50;;
42282;SDS011;28237;47.954;21.730;2022-08-21T00:55:21;5.68;;;2.47;;
42282;SDS011;28237;47.954;21.730;2022-08-21T00:57:47;7.72;;;2.85;;
42282;SDS011;28237;47.954;21.730;2022-08-21T01:00:15;6.78;;;2.97;;
42282;SDS011;28237;47.954;21.730;2022-08-21T01:02:41;3.53;;;2.30;;
42282;SDS011;28237;47.954;21.730;2022-08-21T01:05:08;6.95;;;2.92;;
42282;SDS011;28237;47.954;21.730;2022-08-21T01:07:34;10.82;;;2.80;;
42282;SDS011;28237;47.954;21.730;2022-08-21T01:09:59;7.00;;;2.70;;
42282;SDS011;28237;47.954;21.730;2022-08-21T01:12:25;6.60;;;2.67;;
42282;SDS011;28237;47.954;21.730;2022-08-21T01:14:50;6.57;;;3.70;;
42282;SDS011;28237;47.954;21.730;2022-08-21T01:17:15;5.87;;;3.20;;
42282;SDS011;28237;47.954;21.730;2022-08-21T01:19:42;6.75;;;2.88;;
42282;SDS011;28237;47.954;21.730;2022-08-21T01:22:07;8.10;;;2.67;;
42282;SDS011;28237;47.954;21.730;2022-08-21T01:24:32;6.47;;;2.53;;
42282;SDS011;28237;47.954;21.730;2022-08-21T01:26:58;12.10;;;3.60;;
42282;SDS011;28237;47.954;21.730;2022-08-21T01:31:56;5.50;;;2.42;;
42282;SDS011;28237;47.954;21.730;2022-08-21T01:34:21;5.85;;;2.25;;
42282;SDS011;28237;47.954;21.730;2022-08-21T01:36:47;9.33;;;3.40;;
42282;SDS011;28237;47.954;21.730;2022-08-21T01:39:13;7.70;;;3.80;;
42282;SDS011;28237;47.954;21.730;2022-08-21T01:41:39;7.75;;;2.35;;
42282;SDS011;28237;47.954;21.730;2022-08-21T01:44:04;9.20;;;2.70;;
42282;SDS011;28237;47.954;21.730;2022-08-21T01:46:30;6.72;;;3.40;;
42282;SDS011;28237;47.954;21.730;2022-08-21T01:48:55;6.72;;;3.58;;
42282;SDS011;28237;47.954;21.730;2022-08-21T01:51:20;7.00;;;2.67;;
42282;SDS011;28237;47.954;21.730;2022-08-21T01:53:46;8.30;;;2.77;;
42282;SDS011;28237;47.954;21.730;2022-08-21T01:56:12;6.07;;;2.63;;
42282;SDS011;28237;47.954;21.730;2022-08-21T01:58:43;12.25;;;3.55;;
42282;SDS011;28237;47.954;21.730;2022-08-21T02:01:08;6.30;;;3.55;;
42282;SDS011;28237;47.954;21.730;2022-08-21T02:03:34;8.80;;;3.17;;
42282;SDS011;28237;47.954;21.730;2022-08-21T02:05:59;6.78;;;2.65;;
42282;SDS011;28237;47.954;21.730;2022-08-21T02:08:24;8.67;;;2.80;;
42282;SDS011;28237;47.954;21.730;2022-08-21T02:10:50;4.40;;;2.87;;
42282;SDS011;28237;47.954;21.730;2022-08-21T02:13:16;10.55;;;3.60;;
42282;SDS011;28237;47.954;21.730;2022-08-21T02:15:41;8.68;;;2.60;;
42282;SDS011;28237;47.954;21.730;2022-08-21T02:18:07;8.50;;;2.77;;
42282;SDS011;28237;47.954;21.730;2022-08-21T02:20:42;6.47;;;3.03;;
42282;SDS011;28237;47.954;21.730;2022-08-21T02:23:08;8.98;;;3.67;;
42282;SDS011;28237;47.954;21.730;2022-08-21T02:25:34;7.10;;;2.95;;
42282;SDS011;28237;47.954;21.730;2022-08-21T02:28:02;11.77;;;3.38;;
42282;SDS011;28237;47.954;21.730;2022-08-21T02:30:33;10.30;;;3.53;;
42282;SDS011;28237;47.954;21.730;2022-08-21T02:32:59;6.28;;;3.08;;
42282;SDS011;28237;47.954;21.730;2022-08-21T02:35:24;6.32;;;3.45;;
42282;SDS011;28237;47.954;21.730;2022-08-21T02:37:51;4.53;;;2.90;;
42282;SDS011;28237;47.954;21.730;2022-08-21T02:40:19;8.32;;;3.25;;
42282;SDS011;28237;47.954;21.730;2022-08-21T02:42:44;6.95;;;3.10;;
42282;SDS011;28237;47.954;21.730;2022-08-21T02:45:10;6.55;;;3.00;;
42282;SDS011;28237;47.954;21.730;2022-08-21T02:47:36;9.43;;;4.55;;
42282;SDS011;28237;47.954;21.730;2022-08-21T02:50:01;9.17;;;4.23;;
42282;SDS011;28237;47.954;21.730;2022-08-21T02:52:26;9.45;;;3.50;;
42282;SDS011;28237;47.954;21.730;2022-08-21T02:54:52;8.40;;;3.70;;
42282;SDS011;28237;47.954;21.730;2022-08-21T02:57:17;10.07;;;3.70;;
42282;SDS011;28237;47.954;21.730;2022-08-21T02:59:42;7.87;;;3.33;;
42282;SDS011;28237;47.954;21.730;2022-08-21T03:02:07;9.67;;;3.87;;
42282;SDS011;28237;47.954;21.730;2022-08-21T03:04:33;9.65;;;3.67;;
42282;SDS011;28237;47.954;21.730;2022-08-21T03:06:58;7.73;;;3.90;;
42282;SDS011;28237;47.954;21.730;2022-08-21T03:09:23;9.27;;;3.63;;
42282;SDS011;28237;47.954;21.730;2022-08-21T03:11:49;6.35;;;2.72;;
42282;SDS011;28237;47.954;21.730;2022-08-21T03:14:15;5.60;;;3.30;;
42282;SDS011;28237;47.954;21.730;2022-08-21T03:16:40;9.60;;;3.30;;
42282;SDS011;28237;47.954;21.730;2022-08-21T03:19:07;5.97;;;2.45;;
42282;SDS011;28237;47.954;21.730;2022-08-21T03:21:32;10.63;;;4.00;;
42282;SDS011;28237;47.954;21.730;2022-08-21T03:23:58;5.88;;;3.20;;
42282;SDS011;28237;47.954;21.730;2022-08-21T03:26:23;5.53;;;3.33;;
42282;SDS011;28237;47.954;21.730;2022-08-21T03:28:49;6.70;;;3.72;;
42282;SDS011;28237;47.954;21.730;2022-08-21T03:31:15;9.15;;;3.15;;
42282;SDS011;28237;47.954;21.730;2022-08-21T03:33:42;8.30;;;4.38;;
42282;SDS011;28237;47.954;21.730;2022-08-21T03:36:08;10.38;;;3.90;;
42282;SDS011;28237;47.954;21.730;2022-08-21T03:38:34;9.20;;;3.30;;
42282;SDS011;28237;47.954;21.730;2022-08-21T03:41:00;6.05;;;3.60;;
42282;SDS011;28237;47.954;21.730;2022-08-21T03:43:26;7.35;;;3.20;;
42282;SDS011;28237;47.954;21.730;2022-08-21T03:45:51;9.98;;;4.15;;
42282;SDS011;28237;47.954;21.730;2022-08-21T03:48:17;10.65;;;3.70;;
42282;SDS011;28237;47.954;21.730;2022-08-21T03:50:43;8.65;;;3.53;;
42282;SDS011;28237;47.954;21.730;2022-08-21T03:53:09;9.02;;;3.47;;
42282;SDS011;28237;47.954;21.730;2022-08-21T03:55:34;8.95;;;3.65;;
42282;SDS011;28237;47.954;21.730;2022-08-21T03:58:00;12.23;;;4.23;;
42282;SDS011;28237;47.954;21.730;2022-08-21T04:00:26;10.27;;;3.30;;
42282;SDS011;28237;47.954;21.730;2022-08-21T04:02:51;5.63;;;3.13;;
42282;SDS011;28237;47.954;21.730;2022-08-21T04:05:17;11.88;;;3.55;;
42282;SDS011;28237;47.954;21.730;2022-08-21T04:08:03;7.25;;;3.97;;
42282;SDS011;28237;47.954;21.730;2022-08-21T04:10:29;6.22;;;3.50;;
42282;SDS011;28237;47.954;21.730;2022-08-21T04:12:55;9.35;;;4.00;;
42282;SDS011;28237;47.954;21.730;2022-08-21T04:15:21;8.30;;;4.05;;
42282;SDS011;28237;47.954;21.730;2022-08-21T04:17:46;7.90;;;3.70;;
42282;SDS011;28237;47.954;21.730;2022-08-21T04:20:13;10.35;;;3.50;;
42282;SDS011;28237;47.954;21.730;2022-08-21T04:22:38;8.25;;;3.38;;
42282;SDS011;28237;47.954;21.730;2022-08-21T04:25:04;7.60;;;3.80;;
42282;SDS011;28237;47.954;21.730;2022-08-21T04:27:29;6.90;;;3.72;;
42282;SDS011;28237;47.954;21.730;2022-08-21T04:29:54;7.70;;;3.03;;
42282;SDS011;28237;47.954;21.730;2022-08-21T04:32:24;5.00;;;3.28;;
42282;SDS011;28237;47.954;21.730;2022-08-21T04:34:49;7.80;;;3.45;;
42282;SDS011;28237;47.954;21.730;2022-08-21T04:37:14;6.55;;;3.55;;
42282;SDS011;28237;47.954;21.730;2022-08-21T04:39:40;6.40;;;3.78;;
42282;SDS011;28237;47.954;21.730;2022-08-21T04:42:06;8.98;;;3.72;;
42282;SDS011;28237;47.954;21.730;2022-08-21T04:44:31;8.23;;;4.50;;
42282;SDS011;28237;47.954;21.730;2022-08-21T04:46:56;11.70;;;4.28;;
42282;SDS011;28237;47.954;21.730;2022-08-21T04:49:23;6.97;;;3.70;;
42282;SDS011;28237;47.954;21.730;2022-08-21T04:51:48;7.60;;;3.53;;
42282;SDS011;28237;47.954;21.730;2022-08-21T04:54:14;9.10;;;3.30;;
42282;SDS011;28237;47.954;21.730;2022-08-21T04:56:42;8.50;;;3.10;;
42282;SDS011;28237;47.954;21.730;2022-08-21T04:59:11;13.05;;;4.07;;
42282;SDS011;28237;47.954;21.730;2022-08-21T05:01:38;9.35;;;3.80;;
42282;SDS011;28237;47.954;21.730;2022-08-21T05:04:05;7.85;;;4.07;;
42282;SDS011;28237;47.954;21.730;2022-08-21T05:06:33;8.82;;;4.20;;
42282;SDS011;28237;47.954;21.730;2022-08-21T05:08:59;13.43;;;4.68;;
42282;SDS011;28237;47.954;21.730;2022-08-21T05:11:24;11.98;;;4.47;;
42282;SDS011;28237;47.954;21.730;2022-08-21T05:13:50;10.17;;;4.13;;
42282;SDS011;28237;47.954;21.730;2022-08-21T05:16:15;9.82;;;3.92;;
42282;SDS011;28237;47.954;21.730;2022-08-21T05:18:41;5.82;;;3.55;;
42282;SDS011;28237;47.954;21.730;2022-08-21T05:21:06;14.63;;;5.05;;
42282;SDS011;28237;47.954;21.730;2022-08-21T05:23:31;10.43;;;4.03;;
42282;SDS011;28237;47.954;21.730;2022-08-21T05:25:57;10.80;;;3.55;;
42282;SDS011;28237;47.954;21.730;2022-08-21T05:28:23;13.18;;;4.20;;
42282;SDS011;28237;47.954;21.730;2022-08-21T05:30:48;8.50;;;4.07;;
42282;SDS011;28237;47.954;21.730;2022-08-21T05:33:14;14.18;;;5.28;;
42282;SDS011;28237;47.954;21.730;2022-08-21T05:35:39;6.38;;;4.63;;
42282;SDS011;28237;47.954;21.730;2022-08-21T05:38:05;8.55;;;4.32;;
42282;SDS011;28237;47.954;21.730;2022-08-21T05:40:31;9.38;;;3.78;;
42282;SDS011;28237;47.954;21.730;2022-08-21T05:42:56;12.15;;;5.22;;
42282;SDS011;28237;47.954;21.730;2022-08-21T05:45:29;9.87;;;4.73;;
42282;SDS011;28237;47.954;21.730;2022-08-21T05:47:54;10.10;;;5.47;;
42282;SDS011;28237;47.954;21.730;2022-08-21T05:50:19;8.77;;;4.07;;
42282;SDS011;28237;47.954;21.730;2022-08-21T05:52:45;10.05;;;5.00;;
42282;SDS011;28237;47.954;21.730;2022-08-21T05:55:10;7.70;;;4.13;;
42282;SDS011;28237;47.954;21.730;2022-08-21T05:57:35;7.07;;;4.53;;
42282;SDS011;28237;47.954;21.730;2022-08-21T06:00:01;7.77;;;4.50;;
42282;SDS011;28237;47.954;21.730;2022-08-21T06:02:26;12.05;;;4.78;;
42282;SDS011;28237;47.954;21.730;2022-08-21T06:04:51;11.10;;;5.50;;
42282;SDS011;28237;47.954;21.730;2022-08-21T06:07:16;8.13;;;4.72;;
42282;SDS011;28237;47.954;21.730;2022-08-21T06:09:42;10.65;;;4.40;;
42282;SDS011;28237;47.954;21.730;2022-08-21T06:12:08;11.43;;;4.70;;
42282;SDS011;28237;47.954;21.730;2022-08-21T06:14:34;14.77;;;5.10;;
42282;SDS011;28237;47.954;21.730;2022-08-21T06:17:06;11.95;;;5.18;;
42282;SDS011;28237;47.954;21.730;2022-08-21T06:19:32;12.75;;;5.47;;
42282;SDS011;28237;47.954;21.730;2022-08-21T06:21:58;13.40;;;6.28;;
42282;SDS011;28237;47.954;21.730;2022-08-21T06:24:23;10.15;;;5.25;;
42282;SDS011;28237;47.954;21.730;2022-08-21T06:26:48;12.95;;;5.10;;
42282;SDS011;28237;47.954;21.730;2022-08-21T06:29:14;10.48;;;4.88;;
42282;SDS011;28237;47.954;21.730;2022-08-21T06:31:43;7.30;;;3.85;;
42282;SDS011;28237;47.954;21.730;2022-08-21T06:34:08;6.50;;;4.07;;
42282;SDS011;28237;47.954;21.730;2022-08-21T06:36:34;13.07;;;5.10;;
42282;SDS011;28237;47.954;21.730;2022-08-21T06:38:59;9.20;;;4.15;;
42282;SDS011;28237;47.954;21.730;2022-08-21T06:41:25;8.50;;;5.45;;
42282;SDS011;28237;47.954;21.730;2022-08-21T06:43:50;9.88;;;4.68;;
42282;SDS011;28237;47.954;21.730;2022-08-21T06:46:15;10.73;;;4.20;;
42282;SDS011;28237;47.954;21.730;2022-08-21T06:48:41;8.20;;;3.75;;
42282;SDS011;28237;47.954;21.730;2022-08-21T06:51:06;7.47;;;4.40;;
42282;SDS011;28237;47.954;21.730;2022-08-21T06:53:31;7.70;;;4.00;;
42282;SDS011;28237;47.954;21.730;2022-08-21T06:55:56;8.38;;;3.70;;
42282;SDS011;28237;47.954;21.730;2022-08-21T06:58:22;12.57;;;4.70;;
42282;SDS011;28237;47.954;21.730;2022-08-21T07:00:48;13.60;;;4.33;;
42282;SDS011;28237;47.954;21.730;2022-08-21T07:03:17;15.30;;;4.30;;
42282;SDS011;28237;47.954;21.730;2022-08-21T07:05:43;9.23;;;3.42;;
42282;SDS011;28237;47.954;21.730;2022-08-21T07:08:08;8.63;;;3.30;;
42282;SDS011;28237;47.954;21.730;2022-08-21T07:10:33;9.00;;;3.70;;
42282;SDS011;28237;47.954;21.730;2022-08-21T07:12:59;7.88;;;3.75;;
42282;SDS011;28237;47.954;21.730;2022-08-21T07:15:24;6.05;;;3.20;;
42282;SDS011;28237;47.954;21.730;2022-08-21T07:17:50;10.60;;;4.50;;
42282;SDS011;28237;47.954;21.730;2022-08-21T07:20:15;7.87;;;4.37;;
42282;SDS011;28237;47.954;21.730;2022-08-21T07:22:40;9.13;;;4.27;;
42282;SDS011;28237;47.954;21.730;2022-08-21T07:25:06;12.77;;;4.55;;
42282;SDS011;28237;47.954;21.730;2022-08-21T07:27:31;8.32;;;4.28;;
42282;SDS011;28237;47.954;21.730;2022-08-21T07:29:56;14.97;;;4.70;;
42282;SDS011;28237;47.954;21.730;2022-08-21T07:32:22;7.70;;;3.63;;
42282;SDS011;28237;47.954;21.730;2022-08-21T07:34:47;13.93;;;4.10;;
42282;SDS011;28237;47.954;21.730;2022-08-21T07:37:12;8.10;;;4.23;;
42282;SDS011;28237;47.954;21.730;2022-08-21T07:39:38;10.97;;;3.87;;
42282;SDS011;28237;47.954;21.730;2022-08-21T07:42:03;6.90;;;3.47;;
42282;SDS011;28237;47.954;21.730;2022-08-21T07:44:28;8.43;;;3.10;;
42282;SDS011;28237;47.954;21.730;2022-08-21T07:46:54;13.25;;;4.20;;
42282;SDS011;28237;47.954;21.730;2022-08-21T07:49:19;11.90;;;3.77;;
42282;SDS011;28237;47.954;21.730;2022-08-21T07:51:44;14.20;;;3.53;;
42282;SDS011;28237;47.954;21.730;2022-08-21T07:54:10;24.90;;;4.82;;
42282;SDS011;28237;47.954;21.730;2022-08-21T07:56:35;65.03;;;7.50;;
42282;SDS011;28237;47.954;21.730;2022-08-21T07:59:01;27.90;;;5.37;;
42282;SDS011;28237;47.954;21.730;2022-08-21T08:01:27;10.90;;;3.88;;
42282;SDS011;28237;47.954;21.730;2022-08-21T08:03:53;15.10;;;4.78;;
42282;SDS011;28237;47.954;21.730;2022-08-21T08:06:18;19.40;;;4.57;;
42282;SDS011;28237;47.954;21.730;2022-08-21T08:08:44;18.40;;;5.70;;
42282;SDS011;28237;47.954;21.730;2022-08-21T08:11:10;15.55;;;4.32;;
42282;SDS011;28237;47.954;21.730;2022-08-21T08:13:39;12.73;;;3.70;;
42282;SDS011;28237;47.954;21.730;2022-08-21T08:16:05;10.35;;;3.58;;
42282;SDS011;28237;47.954;21.730;2022-08-21T08:18:30;16.02;;;3.95;;
42282;SDS011;28237;47.954;21.730;2022-08-21T08:20:55;8.17;;;2.97;;
42282;SDS011;28237;47.954;21.730;2022-08-21T08:23:21;49.30;;;6.07;;
42282;SDS011;28237;47.954;21.730;2022-08-21T08:25:47;18.75;;;3.63;;
42282;SDS011;28237;47.954;21.730;2022-08-21T08:28:13;23.65;;;3.80;;
42282;SDS011;28237;47.954;21.730;2022-08-21T08:30:38;8.85;;;3.20;;
42282;SDS011;28237;47.954;21.730;2022-08-21T08:33:03;10.23;;;3.07;;
42282;SDS011;28237;47.954;21.730;2022-08-21T08:35:29;14.70;;;3.30;;
42282;SDS011;28237;47.954;21.730;2022-08-21T08:37:54;7.47;;;2.80;;
42282;SDS011;28237;47.954;21.730;2022-08-21T08:43:05;18.85;;;4.25;;
42282;SDS011;28237;47.954;21.730;2022-08-21T08:45:31;14.13;;;2.75;;
42282;SDS011;28237;47.954;21.730;2022-08-21T08:48:00;33.75;;;6.97;;
42282;SDS011;28237;47.954;21.730;2022-08-21T08:50:38;33.45;;;6.13;;
42282;SDS011;28237;47.954;21.730;2022-08-21T08:53:15;21.65;;;7.00;;
42282;SDS011;28237;47.954;21.730;2022-08-21T08:55:43;12.77;;;4.13;;
42282;SDS011;28237;47.954;21.730;2022-08-21T08:58:09;9.32;;;3.40;;
42282;SDS011;28237;47.954;21.730;2022-08-21T09:00:37;9.27;;;4.18;;
42282;SDS011;28237;47.954;21.730;2022-08-21T09:03:03;7.63;;;4.28;;
42282;SDS011;28237;47.954;21.730;2022-08-21T09:05:30;8.25;;;3.42;;
42282;SDS011;28237;47.954;21.730;2022-08-21T09:10:34;13.13;;;4.37;;
42282;SDS011;28237;47.954;21.730;2022-08-21T09:23:09;8.65;;;4.68;;
42282;SDS011;28237;47.954;21.730;2022-08-21T09:28:19;8.95;;;4.18;;
42282;SDS011;28237;47.954;21.730;2022-08-21T09:30:44;14.60;;;4.60;;
42282;SDS011;28237;47.954;21.730;2022-08-21T09:33:11;7.77;;;4.40;;
42282;SDS011;28237;47.954;21.730;2022-08-21T09:35:47;7.60;;;4.70;;
42282;SDS011;28237;47.954;21.730;2022-08-21T09:38:22;5.07;;;3.83;;
42282;SDS011;28237;47.954;21.730;2022-08-21T09:40:54;9.75;;;4.82;;
42282;SDS011;28237;47.954;21.730;2022-08-21T09:43:21;9.73;;;5.53;;
42282;SDS011;28237;47.954;21.730;2022-08-21T09:45:47;13.48;;;5.32;;
42282;SDS011;28237;47.954;21.730;2022-08-21T09:50:44;10.35;;;4.97;;
42282;SDS011;28237;47.954;21.730;2022-08-21T09:53:20;12.68;;;5.05;;
42282;SDS011;28237;47.954;21.730;2022-08-21T09:55:51;13.52;;;6.40;;
42282;SDS011;28237;47.954;21.730;2022-08-21T09:58:36;9.40;;;4.40;;
42282;SDS011;28237;47.954;21.730;2022-08-21T10:01:03;10.10;;;4.63;;
42282;SDS011;28237;47.954;21.730;2022-08-21T10:03:29;9.77;;;5.32;;
42282;SDS011;28237;47.954;21.730;2022-08-21T10:08:19;12.97;;;5.87;;
42282;SDS011;28237;47.954;21.730;2022-08-21T10:10:45;13.60;;;7.40;;
42282;SDS011;28237;47.954;21.730;2022-08-21T10:13:17;6.63;;;5.40;;
42282;SDS011;28237;47.954;21.730;2022-08-21T10:18:42;10.55;;;5.40;;
42282;SDS011;28237;47.954;21.730;2022-08-21T10:23:51;15.27;;;5.47;;
42282;SDS011;28237;47.954;21.730;2022-08-21T10:26:33;11.23;;;5.83;;
42282;SDS011;28237;47.954;21.730;2022-08-21T10:29:19;14.70;;;6.25;;
42282;SDS011;28237;47.954;21.730;2022-08-21T10:44:54;12.43;;;5.00;;
42282;SDS011;28237;47.954;21.730;2022-08-21T10:52:29;9.27;;;4.75;;
42282;SDS011;28237;47.954;21.730;2022-08-21T10:57:34;13.50;;;4.77;;
42282;SDS011;28237;47.954;21.730;2022-08-21T11:00:04;13.18;;;5.75;;
42282;SDS011;28237;47.954;21.730;2022-08-21T11:02:35;15.55;;;6.15;;
42282;SDS011;28237;47.954;21.730;2022-08-21T11:07:31;8.23;;;4.80;;
42282;SDS011;28237;47.954;21.730;2022-08-21T11:09:57;9.40;;;5.20;;
42282;SDS011;28237;47.954;21.730;2022-08-21T11:12:25;11.70;;;5.07;;
42282;SDS011;28237;47.954;21.730;2022-08-21T11:14:57;13.40;;;5.45;;
42282;SDS011;28237;47.954;21.730;2022-08-21T11:20:24;13.27;;;5.60;;
42282;SDS011;28237;47.954;21.730;2022-08-21T11:22:56;14.13;;;5.38;;
42282;SDS011;28237;47.954;21.730;2022-08-21T11:25:32;10.73;;;4.93;;
42282;SDS011;28237;47.954;21.730;2022-08-21T11:28:06;10.52;;;4.63;;
42282;SDS011;28237;47.954;21.730;2022-08-21T11:30:58;8.40;;;3.97;;
42282;SDS011;28237;47.954;21.730;2022-08-21T11:43:41;8.20;;;2.70;;
42282;SDS011;28237;47.954;21.730;2022-08-21T11:48:52;9.38;;;4.95;;
42282;SDS011;28237;47.954;21.730;2022-08-21T11:51:22;8.98;;;3.17;;
42282;SDS011;28237;47.954;21.730;2022-08-21T11:56:28;12.70;;;4.47;;
42282;SDS011;28237;47.954;21.730;2022-08-21T11:58:56;9.48;;;3.65;;
42282;SDS011;28237;47.954;21.730;2022-08-21T12:01:24;11.02;;;4.57;;
42282;SDS011;28237;47.954;21.730;2022-08-21T12:03:55;6.22;;;3.05;;
42282;SDS011;28237;47.954;21.730;2022-08-21T12:06:29;12.45;;;3.42;;
42282;SDS011;28237;47.954;21.730;2022-08-21T12:08:59;7.35;;;2.22;;
42282;SDS011;28237;47.954;21.730;2022-08-21T12:11:24;6.53;;;2.60;;
42282;SDS011;28237;47.954;21.730;2022-08-21T12:16:31;8.15;;;2.45;;
42282;SDS011;28237;47.954;21.730;2022-08-21T12:21:31;10.07;;;3.22;;
42282;SDS011;28237;47.954;21.730;2022-08-21T12:24:03;4.85;;;2.88;;
42282;SDS011;28237;47.954;21.730;2022-08-21T12:26:34;9.05;;;2.70;;
42282;SDS011;28237;47.954;21.730;2022-08-21T12:29:33;6.47;;;2.90;;
42282;SDS011;28237;47.954;21.730;2022-08-21T12:31:56;10.20;;;3.15;;
42282;SDS011;28237;47.954;21.730;2022-08-21T12:34:23;8.45;;;2.50;;
42282;SDS011;28237;47.954;21.730;2022-08-21T12:36:53;6.97;;;2.70;;
42282;SDS011;28237;47.954;21.730;2022-08-21T12:39:26;12.18;;;5.65;;
42282;SDS011;28237;47.954;21.730;2022-08-21T12:44:21;7.53;;;2.00;;
42282;SDS011;28237;47.954;21.730;2022-08-21T12:46:50;6.95;;;2.03;;
42282;SDS011;28237;47.954;21.730;2022-08-21T12:49:33;6.22;;;2.10;;
42282;SDS011;28237;47.954;21.730;2022-08-21T12:52:05;7.22;;;2.40;;
42282;SDS011;28237;47.954;21.730;2022-08-21T12:54:37;8.63;;;1.85;;
42282;SDS011;28237;47.954;21.730;2022-08-21T12:57:04;6.97;;;2.17;;
42282;SDS011;28237;47.954;21.730;2022-08-21T12:59:30;5.43;;;2.38;;
42282;SDS011;28237;47.954;21.730;2022-08-21T13:01:56;6.00;;;3.42;;
42282;SDS011;28237;47.954;21.730;2022-08-21T13:04:26;6.30;;;2.50;;
42282;SDS011;28237;47.954;21.730;2022-08-21T13:06:55;7.95;;;1.67;;
42282;SDS011;28237;47.954;21.730;2022-08-21T13:09:24;6.90;;;1.92;;
42282;SDS011;28237;47.954;21.730;2022-08-21T13:11:50;11.40;;;2.72;;
42282;SDS011;28237;47.954;21.730;2022-08-21T13:14:36;7.80;;;2.15;;
42282;SDS011;28237;47.954;21.730;2022-08-21T13:17:02;7.35;;;2.15;;
42282;SDS011;28237;47.954;21.730;2022-08-21T13:19:28;6.68;;;2.67;;
42282;SDS011;28237;47.954;21.730;2022-08-21T13:21:55;4.63;;;1.42;;
42282;SDS011;28237;47.954;21.730;2022-08-21T13:26:46;5.60;;;1.42;;
42282;SDS011;28237;47.954;21.730;2022-08-21T13:29:12;7.27;;;1.90;;
42282;SDS011;28237;47.954;21.730;2022-08-21T13:31:40;5.90;;;1.55;;
42282;SDS011;28237;47.954;21.730;2022-08-21T13:34:07;3.80;;;2.17;;
42282;SDS011;28237;47.954;21.730;2022-08-21T13:36:39;7.63;;;2.15;;
42282;SDS011;28237;47.954;21.730;2022-08-21T13:39:09;5.45;;;1.80;;
42282;SDS011;28237;47.954;21.730;2022-08-21T13:41:36;9.45;;;2.22;;
42282;SDS011;28237;47.954;21.730;2022-08-21T13:44:13;4.05;;;1.33;;
42282;SDS011;28237;47.954;21.730;2022-08-21T13:46:39;8.30;;;2.53;;
42282;SDS011;28237;47.954;21.730;2022-08-21T13:49:05;4.68;;;1.70;;
42282;SDS011;28237;47.954;21.730;2022-08-21T13:51:31;9.85;;;4.40;;
42282;SDS011;28237;47.954;21.730;2022-08-21T13:53:57;6.38;;;1.95;;
42282;SDS011;28237;47.954;21.730;2022-08-21T13:58:51;4.18;;;2.03;;
42282;SDS011;28237;47.954;21.730;2022-08-21T14:01:21;4.72;;;1.20;;
42282;SDS011;28237;47.954;21.730;2022-08-21T14:03:47;4.97;;;2.10;;
42282;SDS011;28237;47.954;21.730;2022-08-21T14:06:26;4.35;;;2.55;;
42282;SDS011;28237;47.954;21.730;2022-08-21T14:08:55;3.70;;;1.38;;
42282;SDS011;28237;47.954;21.730;2022-08-21T14:11:22;5.30;;;2.10;;
42282;SDS011;28237;47.954;21.730;2022-08-21T14:13:49;5.73;;;2.27;;
42282;SDS011;28237;47.954;21.730;2022-08-21T14:18:49;7.20;;;2.13;;
42282;SDS011;28237;47.954;21.730;2022-08-21T14:21:22;9.45;;;2.05;;
42282;SDS011;28237;47.954;21.730;2022-08-21T14:23:58;5.18;;;1.95;;
42282;SDS011;28237;47.954;21.730;2022-08-21T14:26:24;5.53;;;1.25;;
42282;SDS011;28237;47.954;21.730;2022-08-21T14:28:49;7.00;;;1.70;;
42282;SDS011;28237;47.954;21.730;2022-08-21T14:31:18;9.07;;;2.20;;
42282;SDS011;28237;47.954;21.730;2022-08-21T14:33:44;5.57;;;1.63;;
42282;SDS011;28237;47.954;21.730;2022-08-21T14:36:09;6.10;;;2.30;;
42282;SDS011;28237;47.954;21.730;2022-08-21T14:38:36;7.10;;;2.58;;
42282;SDS011;28237;47.954;21.730;2022-08-21T14:43:57;8.95;;;1.55;;
42282;SDS011;28237;47.954;21.730;2022-08-21T14:46:23;6.20;;;1.70;;
42282;SDS011;28237;47.954;21.730;2022-08-21T14:48:49;8.38;;;2.00;;
42282;SDS011;28237;47.954;21.730;2022-08-21T14:51:15;6.53;;;2.28;;
42282;SDS011;28237;47.954;21.730;2022-08-21T14:53:40;4.10;;;1.67;;
42282;SDS011;28237;47.954;21.730;2022-08-21T14:56:06;4.10;;;2.10;;
42282;SDS011;28237;47.954;21.730;2022-08-21T14:58:36;5.68;;;2.28;;
42282;SDS011;28237;47.954;21.730;2022-08-21T15:01:02;6.43;;;2.25;;
42282;SDS011;28237;47.954;21.730;2022-08-21T15:03:29;5.90;;;2.00;;
42282;SDS011;28237;47.954;21.730;2022-08-21T15:05:54;7.15;;;2.58;;
42282;SDS011;28237;47.954;21.730;2022-08-21T15:08:19;5.63;;;1.97;;
42282;SDS011;28237;47.954;21.730;2022-08-21T15:10:45;6.10;;;1.83;;
42282;SDS011;28237;47.954;21.730;2022-08-21T15:13:10;3.95;;;2.63;;
42282;SDS011;28237;47.954;21.730;2022-08-21T15:15:38;7.78;;;2.20;;
42282;SDS011;28237;47.954;21.730;2022-08-21T15:18:04;4.25;;;1.60;;
42282;SDS011;28237;47.954;21.730;2022-08-21T15:20:29;8.15;;;1.95;;
42282;SDS011;28237;47.954;21.730;2022-08-21T15:22:55;7.43;;;1.88;;
42282;SDS011;28237;47.954;21.730;2022-08-21T15:25:20;4.33;;;2.10;;
42282;SDS011;28237;47.954;21.730;2022-08-21T15:27:45;7.10;;;2.53;;
42282;SDS011;28237;47.954;21.730;2022-08-21T15:30:10;7.07;;;2.07;;
42282;SDS011;28237;47.954;21.730;2022-08-21T15:32:36;6.00;;;2.53;;
42282;SDS011;28237;47.954;21.730;2022-08-21T15:35:02;6.72;;;1.90;;
42282;SDS011;28237;47.954;21.730;2022-08-21T15:37:28;5.20;;;2.53;;
42282;SDS011;28237;47.954;21.730;2022-08-21T15:39:54;6.00;;;1.95;;
42282;SDS011;28237;47.954;21.730;2022-08-21T15:42:19;4.00;;;1.70;;
42282;SDS011;28237;47.954;21.730;2022-08-21T15:44:46;3.70;;;2.03;;
42282;SDS011;28237;47.954;21.730;2022-08-21T15:47:12;4.20;;;1.40;;
42282;SDS011;28237;47.954;21.730;2022-08-21T15:49:38;4.07;;;1.92;;
42282;SDS011;28237;47.954;21.730;2022-08-21T15:52:04;4.40;;;1.95;;
42282;SDS011;28237;47.954;21.730;2022-08-21T15:54:29;4.27;;;1.57;;
42282;SDS011;28237;47.954;21.730;2022-08-21T15:56:54;5.82;;;1.90;;
42282;SDS011;28237;47.954;21.730;2022-08-21T15:59:20;8.27;;;2.43;;
42282;SDS011;28237;47.954;21.730;2022-08-21T16:01:47;9.07;;;1.98;;